Date,TemperatureHighF,TemperatureAvgF,TemperatureLowF,DewpointHighF,DewpointAvgF,DewpointLowF,HumidityHigh,HumidityAvg,HumidityLow,PressureMaxIn,PressureMinIn,WindSpeedMaxMPH,WindSpeedAvgMPH,GustSpeedMaxMPH,PrecipitationSumIn
2013-9-1,64.7,59.3,53.0,53.0,50.0,47.0,81,72,60,30.33,30.25,6,1,13,0.00
2013-9-2,68.8,62.9,57.8,62.0,56.8,52.0,92,81,72,30.29,30.18,8,2,14,0.00
2013-9-3,74.6,66.7,59.2,64.0,61.7,58.0,96,85,68,30.34,30.28,6,1,7,0.00
2013-9-4,76.7,68.7,59.4,63.0,61.5,58.0,96,79,61,30.30,30.08,7,1,10,0.00
2013-9-5,87.7,74.5,62.0,66.0,62.5,60.0,92,69,43,30.07,29.78,7,2,15,0.00
2013-9-6,75.5,68.4,59.9,64.0,61.0,58.0,93,78,61,29.89,29.72,7,1,10,0.00
2013-9-7,70.2,63.7,59.3,61.0,56.8,52.0,93,79,54,30.09,29.89,5,0,10,0.00
2013-9-8,65.5,59.0,53.4,55.0,53.2,51.0,96,82,64,30.11,30.05,5,1,11,0.00
2013-9-9,63.1,55.6,51.6,56.0,52.5,51.0,97,89,67,30.09,29.90,6,1,11,0.00
2013-9-10,62.4,55.1,50.5,58.0,53.4,50.0,97,94,74,29.91,29.73,14,2,25,0.00
2013-9-11,65.1,59.1,53.2,59.0,55.4,52.0,98,88,71,29.99,29.75,15,3,17,0.00
2013-9-12,65.7,59.1,54.2,60.0,56.4,53.0,98,91,76,30.09,29.98,6,1,11,0.00
2013-9-13,61.4,57.6,52.2,59.0,55.4,51.0,98,92,80,30.09,29.97,7,2,13,0.00
2013-9-14,62.3,59.2,56.2,61.0,56.7,50.0,98,92,74,29.97,29.74,14,3,21,0.00
2013-9-15,61.9,55.8,48.7,53.0,49.4,46.0,96,80,58,29.96,29.50,10,2,18,0.00
2013-9-16,59.1,53.9,47.7,54.0,46.3,40.0,97,76,51,29.53,29.46,12,2,20,0.00
2013-9-17,58.7,52.8,48.3,49.0,46.9,45.0,96,81,63,29.55,29.36,8,2,15,0.00
2013-9-18,59.1,52.3,48.2,54.0,49.4,46.0,98,90,72,29.72,29.35,8,1,14,0.00
2013-9-19,59.1,53.3,47.3,56.0,49.9,46.0,98,89,65,29.85,29.72,9,2,14,0.00
2013-9-20,61.1,57.0,49.3,56.0,53.3,48.0,97,88,78,30.18,29.75,9,1,12,0.00
2013-9-21,64.9,57.0,48.4,56.0,52.9,47.0,96,86,69,30.30,30.18,5,1,9,0.00
2013-9-22,66.7,61.0,58.2,63.0,59.3,56.0,97,94,86,30.34,30.28,3,0,8,0.00
2013-9-23,66.6,61.2,55.6,62.0,59.3,55.0,98,93,83,30.34,30.16,4,0,11,0.00
2013-9-24,64.9,58.5,53.0,60.0,56.1,52.0,99,92,73,30.15,29.98,3,0,5,0.00
2013-9-25,65.7,59.1,53.8,58.0,55.5,53.0,97,88,72,29.97,29.83,2,0,5,0.00
2013-9-26,60.2,56.9,52.4,56.0,50.2,45.0,96,79,65,30.11,29.85,8,2,13,0.00
2013-9-27,61.4,53.7,46.4,49.0,45.8,43.0,91,75,60,30.11,30.01,10,2,13,0.00
2013-9-28,63.1,54.8,47.5,47.0,43.4,41.0,81,67,46,30.01,29.88,12,4,17,0.00
2013-9-29,63.4,54.8,47.6,47.0,45.0,43.0,85,70,54,29.89,29.79,18,6,20,0.00
2013-9-30,61.2,53.0,46.2,47.0,43.7,41.0,84,71,58,29.89,29.81,13,5,15,0.00